Terminal Aerodrome Forecast
Issued by NWS

Home | Current Version | Previous Version | Text Only | Print | Product List | Glossary On
Versions: 1 2 3 4 5 6 7 8 9 10 11 12 13 14 15 16 17
000
FTUS42 KTBW 300520
TAFLAL
TAF
KLAL 300520Z 3006/0106 VRB03KT P6SM SCT250
     FM301400 VRB03KT P6SM VCSH SCT025 SCT250
     FM301700 23005KT P6SM VCTS SCT030CB SCT150 BKN250
     FM010100 VRB03KT P6SM SCT040 BKN250
      AMD NOT SKED TIL 301100=

USA.gov is the U.S. government's official web portal to all federal, state and local government web resources and services.